Time;durP1;ratioP1;P1;durP2;ratioP2;P2;SDS_P1;SDS_P2;PMS_P1;PMS_P2;Temp;Humidity;BMP_temperature;BMP_pressure;BME280_temperature;BME280_humidity;BME280_pressure;Samples;Min_cycle;Max_cycle;Signal;HPM_P1;HPM_P2
2023/08/14 00:00:15;;;;;;;5.47;3.10;;;14.70;99.90;;;;;;7372363;19;20037;-59
2023/08/14 00:02:41;;;;;;;4.28;3.20;;;14.60;99.90;;;;;;7377451;19;20018;-59
2023/08/14 00:05:08;;;;;;;6.18;2.70;;;14.60;99.90;;;;;;7372998;19;20593;-60
2023/08/14 00:07:34;;;;;;;4.30;3.00;;;14.60;99.90;;;;;;7371719;19;20565;-60
2023/08/14 00:10:00;;;;;;;4.05;2.80;;;14.60;99.90;;;;;;7375212;19;20502;-59
2023/08/14 00:12:26;;;;;;;4.00;3.10;;;14.60;99.90;;;;;;7373124;19;20462;-59
2023/08/14 00:14:53;;;;;;;5.20;3.40;;;14.60;99.90;;;;;;7372396;19;20129;-60
2023/08/14 00:17:19;;;;;;;4.82;3.55;;;14.60;99.90;;;;;;7371860;19;20018;-59
2023/08/14 00:19:45;;;;;;;4.13;3.28;;;14.50;99.90;;;;;;7372300;19;20029;-60
2023/08/14 00:22:12;;;;;;;4.03;2.85;;;14.50;99.90;;;;;;7371001;19;20355;-60
2023/08/14 00:24:39;;;;;;;5.07;3.22;;;14.50;99.90;;;;;;7369800;19;20023;-60
2023/08/14 00:27:06;;;;;;;5.65;4.05;;;14.50;99.90;;;;;;7370453;19;20060;-59
2023/08/14 00:29:32;;;;;;;5.40;3.65;;;14.50;99.90;;;;;;7375631;19;20786;-61
2023/08/14 00:31:58;;;;;;;5.63;4.30;;;14.50;99.90;;;;;;7376981;19;20387;-60
2023/08/14 00:34:25;;;;;;;6.93;4.00;;;14.50;99.90;;;;;;7371629;19;20029;-60
2023/08/14 00:36:51;;;;;;;4.93;4.13;;;14.50;99.90;;;;;;7378923;19;20390;-60
2023/08/14 00:39:18;;;;;;;6.20;4.63;;;14.50;99.90;;;;;;7376784;19;20017;-60
2023/08/14 00:41:44;;;;;;;5.32;4.13;;;14.50;99.90;;;;;;7373996;19;20033;-60
2023/08/14 00:44:11;;;;;;;9.13;4.82;;;14.40;99.90;;;;;;7381114;19;20360;-59
2023/08/14 00:46:37;;;;;;;5.35;4.30;;;14.40;99.90;;;;;;7378766;19;20065;-58
2023/08/14 00:49:03;;;;;;;6.25;4.50;;;14.40;99.90;;;;;;7379647;19;20029;-59
2023/08/14 00:51:30;;;;;;;6.38;5.22;;;14.40;99.90;;;;;;7380285;19;20014;-58
2023/08/14 00:53:56;;;;;;;5.95;4.90;;;14.30;99.90;;;;;;7375611;19;20018;-60
2023/08/14 00:56:23;;;;;;;5.72;4.63;;;14.30;99.90;;;;;;7368270;19;20011;-60
2023/08/14 00:58:50;;;;;;;7.93;5.22;;;14.30;99.90;;;;;;7374238;19;20014;-57
2023/08/14 01:01:18;;;;;;;5.75;4.60;;;14.20;99.90;;;;;;7375518;19;20019;-59
2023/08/14 01:03:46;;;;;;;5.07;4.40;;;14.20;99.90;;;;;;7374645;19;20019;-60
2023/08/14 01:06:12;;;;;;;6.55;4.78;;;14.20;99.90;;;;;;7379170;19;20014;-59
2023/08/14 01:08:39;;;;;;;6.22;4.30;;;14.20;99.90;;;;;;7376849;19;20023;-60
2023/08/14 01:11:15;;;;;;;6.85;4.38;;;14.10;99.90;;;;;;7374069;19;20478;-59
2023/08/14 01:14:19;;;;;;;6.75;4.93;;;14.10;99.90;;;;;;7375232;19;20046;-59
2023/08/14 01:17:02;;;;;;;6.80;5.45;;;14.10;99.90;;;;;;7374223;19;20038;-58
2023/08/14 01:19:39;;;;;;;8.02;6.00;;;14.10;99.90;;;;;;7374417;19;20402;-60
2023/08/14 01:22:55;;;;;;;9.20;5.90;;;14.10;99.90;;;;;;7372482;19;20014;-58
2023/08/14 01:25:33;;;;;;;8.68;7.20;;;14.10;99.90;;;;;;7375378;19;20097;-59
2023/08/14 01:28:04;;;;;;;8.05;6.38;;;14.00;99.90;;;;;;7372357;19;20023;-60
2023/08/14 01:30:30;;;;;;;10.57;8.30;;;14.00;99.90;;;;;;7376315;19;20067;-61
2023/08/14 01:33:00;;;;;;;8.82;7.93;;;14.10;99.90;;;;;;7375250;19;20037;-59
2023/08/14 01:35:34;;;;;;;10.65;9.55;;;14.10;99.90;;;;;;7374200;19;20338;-60
2023/08/14 01:38:11;;;;;;;11.05;10.00;;;14.10;99.90;;;;;;7377654;19;20090;-59
2023/08/14 01:41:13;;;;;;;10.80;9.18;;;14.10;99.90;;;;;;7381166;19;20494;-60
2023/08/14 01:43:47;;;;;;;10.70;9.07;;;14.10;99.90;;;;;;7377302;19;20021;-59
2023/08/14 01:46:15;;;;;;;12.07;8.68;;;14.10;99.90;;;;;;7377963;19;20022;-58
2023/08/14 01:48:43;;;;;;;11.25;8.82;;;14.10;99.90;;;;;;7375296;19;20018;-60
2023/08/14 01:51:11;;;;;;;9.68;8.75;;;14.00;99.90;;;;;;7382916;19;20354;-59
2023/08/14 01:53:37;;;;;;;10.40;9.27;;;14.00;99.90;;;;;;7377348;19;20035;-60
2023/08/14 01:56:03;;;;;;;10.07;8.88;;;13.90;99.90;;;;;;7379749;19;20019;-60
2023/08/14 01:58:33;;;;;;;10.50;8.95;;;14.00;99.90;;;;;;7371973;19;20519;-60
2023/08/14 02:01:02;;;;;;;9.93;8.95;;;13.90;99.90;;;;;;7377545;19;20022;-60
2023/08/14 02:03:28;;;;;;;11.35;9.27;;;13.90;99.90;;;;;;7382321;19;20023;-59
2023/08/14 02:05:56;;;;;;;11.20;9.77;;;13.90;99.90;;;;;;7382559;19;20086;-59
2023/08/14 02:08:22;;;;;;;13.52;10.35;;;13.90;99.90;;;;;;7379677;19;20018;-60
2023/08/14 02:10:48;;;;;;;11.10;10.00;;;13.90;99.90;;;;;;7382340;19;20022;-59
2023/08/14 02:13:15;;;;;;;10.18;8.98;;;13.90;99.90;;;;;;7383220;19;20022;-60
2023/08/14 02:15:45;;;;;;;10.60;9.50;;;13.90;99.90;;;;;;7378629;19;20027;-60
2023/08/14 02:18:13;;;;;;;12.23;10.98;;;13.90;99.90;;;;;;7380508;19;20022;-60
2023/08/14 02:20:49;;;;;;;11.55;10.35;;;13.90;99.90;;;;;;7371398;19;20014;-60
2023/08/14 02:23:15;;;;;;;14.85;13.20;;;13.90;99.90;;;;;;7372402;19;20442;-60
2023/08/14 02:25:43;;;;;;;13.93;12.63;;;13.90;99.90;;;;;;7381552;19;20014;-59
2023/08/14 02:28:10;;;;;;;15.45;13.82;;;13.90;99.90;;;;;;7375846;19;20025;-59
2023/08/14 02:30:43;;;;;;;18.95;13.63;;;13.90;99.90;;;;;;7380133;19;20036;-60
2023/08/14 02:33:09;;;;;;;15.73;14.07;;;14.00;99.90;;;;;;7376511;19;20023;-60
2023/08/14 02:35:36;;;;;;;15.88;14.20;;;13.90;99.90;;;;;;7371337;19;20869;-61
2023/08/14 02:38:05;;;;;;;15.40;13.18;;;13.90;99.90;;;;;;7370703;19;20022;-60
2023/08/14 02:40:31;;;;;;;14.75;13.25;;;13.90;99.90;;;;;;7371693;19;20015;-60
2023/08/14 02:43:00;;;;;;;13.57;12.18;;;13.90;99.90;;;;;;7373888;19;20014;-62
2023/08/14 02:45:26;;;;;;;13.75;12.38;;;13.90;99.90;;;;;;7373464;19;20074;-60
2023/08/14 02:47:53;;;;;;;13.45;12.02;;;13.90;99.90;;;;;;7378183;19;20477;-61
2023/08/14 02:50:21;;;;;;;12.52;11.20;;;13.80;99.90;;;;;;7381998;19;20022;-59
2023/08/14 02:52:51;;;;;;;14.73;12.18;;;13.80;99.90;;;;;;7379260;19;20091;-59
2023/08/14 02:55:17;;;;;;;13.10;11.07;;;13.80;99.90;;;;;;7381642;19;20481;-59
2023/08/14 02:57:43;;;;;;;13.70;12.40;;;13.70;99.90;;;;;;7379979;19;20018;-60
2023/08/14 03:00:10;;;;;;;14.35;11.43;;;13.70;99.90;;;;;;7371891;19;20018;-60
2023/08/14 03:02:36;;;;;;;12.38;11.15;;;13.70;99.90;;;;;;7370791;19;20026;-60
2023/08/14 03:05:03;;;;;;;12.45;11.15;;;13.70;99.90;;;;;;7372357;19;20019;-60
2023/08/14 03:07:29;;;;;;;11.48;10.43;;;13.60;99.90;;;;;;7371770;19;20138;-60
2023/08/14 03:09:56;;;;;;;12.02;10.77;;;13.60;99.90;;;;;;7373741;19;20014;-60
2023/08/14 03:12:22;;;;;;;12.20;10.75;;;13.60;99.90;;;;;;7372528;19;20021;-60
2023/08/14 03:14:49;;;;;;;12.25;10.77;;;13.60;99.90;;;;;;7371849;19;20095;-60
2023/08/14 03:17:15;;;;;;;11.25;10.15;;;13.50;99.90;;;;;;7371817;19;20018;-61
2023/08/14 03:19:41;;;;;;;11.10;10.05;;;13.50;99.90;;;;;;7371221;19;20519;-59
2023/08/14 03:22:07;;;;;;;11.15;10.13;;;13.50;99.90;;;;;;7369291;19;20099;-60
2023/08/14 03:24:34;;;;;;;10.88;9.77;;;13.50;99.90;;;;;;7379055;19;20541;-57
2023/08/14 03:27:01;;;;;;;15.55;11.85;;;13.40;99.90;;;;;;7377720;19;20014;-59
2023/08/14 03:29:27;;;;;;;13.52;12.10;;;13.40;99.90;;;;;;7371528;19;20014;-61
2023/08/14 03:31:53;;;;;;;12.80;11.50;;;13.50;99.90;;;;;;7371565;19;20018;-60
2023/08/14 03:34:20;;;;;;;12.48;11.10;;;13.50;99.90;;;;;;7382298;19;20035;-60
2023/08/14 03:36:47;;;;;;;17.13;12.38;;;13.40;99.90;;;;;;7376619;19;20018;-61
2023/08/14 03:39:13;;;;;;;12.70;11.45;;;13.50;99.90;;;;;;7380145;19;20073;-60
2023/08/14 03:41:39;;;;;;;13.48;12.18;;;13.50;99.90;;;;;;7381098;19;20494;-60
2023/08/14 03:44:06;;;;;;;16.77;14.63;;;13.50;99.90;;;;;;7380969;19;20098;-60
2023/08/14 03:46:32;;;;;;;16.70;14.95;;;13.50;99.90;;;;;;7379450;19;20018;-60
2023/08/14 03:48:58;;;;;;;16.35;14.68;;;13.50;99.90;;;;;;7377785;19;20573;-60
2023/08/14 03:51:25;;;;;;;19.98;16.20;;;13.60;99.90;;;;;;7377747;19;20011;-60
2023/08/14 03:53:51;;;;;;;16.83;15.10;;;13.50;99.90;;;;;;7379346;19;20444;-60
2023/08/14 03:56:18;;;;;;;16.38;14.75;;;13.60;99.90;;;;;;7379980;19;20515;-60
2023/08/14 03:58:45;;;;;;;15.77;13.32;;;13.50;99.90;;;;;;7377162;19;20057;-60
2023/08/14 04:01:12;;;;;;;14.65;13.13;;;13.50;99.90;;;;;;7376090;19;20010;-61
2023/08/14 04:03:39;;;;;;;14.20;12.85;;;13.50;99.90;;;;;;7379742;19;20125;-60
2023/08/14 04:06:05;;;;;;;16.15;13.07;;;13.50;99.90;;;;;;7381453;19;20018;-60
2023/08/14 04:08:31;;;;;;;13.90;12.20;;;13.40;99.90;;;;;;7377512;19;20025;-60
2023/08/14 04:10:57;;;;;;;14.88;13.38;;;13.40;99.90;;;;;;7379366;19;20037;-60
2023/08/14 04:13:27;;;;;;;13.23;11.93;;;13.40;99.90;;;;;;7378912;19;20025;-60
2023/08/14 04:16:03;;;;;;;14.88;13.38;;;13.40;99.90;;;;;;7377005;19;20029;-61
2023/08/14 04:18:30;;;;;;;13.18;11.88;;;13.40;99.90;;;;;;7367624;19;20359;-64
2023/08/14 04:20:57;;;;;;;11.57;10.40;;;13.40;99.90;;;;;;7373961;19;20022;-58
2023/08/14 04:23:24;;;;;;;14.35;12.02;;;13.40;99.90;;;;;;7380511;19;20041;-57
2023/08/14 04:25:51;;;;;;;12.63;11.45;;;13.30;99.90;;;;;;7369692;19;20022;-61
2023/08/14 04:28:19;;;;;;;12.45;11.25;;;13.30;99.90;;;;;;7371204;19;20011;-60
2023/08/14 04:30:45;;;;;;;13.18;10.82;;;13.30;99.90;;;;;;7375271;19;20022;-60
2023/08/14 04:33:11;;;;;;;12.55;11.27;;;13.40;99.90;;;;;;7376798;19;20442;-61
2023/08/14 04:35:41;;;;;;;11.88;10.77;;;13.40;99.90;;;;;;7379391;19;20018;-65
2023/08/14 04:38:07;;;;;;;12.88;11.73;;;13.40;99.90;;;;;;7376283;19;20028;-63
2023/08/14 04:40:35;;;;;;;14.20;12.50;;;13.40;99.90;;;;;;7374371;19;20033;-61
2023/08/14 04:43:02;;;;;;;12.63;11.18;;;13.50;99.90;;;;;;7373236;19;20033;-63
2023/08/14 04:45:28;;;;;;;15.05;12.35;;;13.50;99.90;;;;;;7380216;19;20588;-63
2023/08/14 04:47:55;;;;;;;14.32;12.43;;;13.50;99.90;;;;;;7378510;19;20497;-60
2023/08/14 04:50:22;;;;;;;14.88;13.10;;;13.60;99.90;;;;;;7375432;19;20018;-60
2023/08/14 04:52:48;;;;;;;15.57;13.35;;;13.60;99.90;;;;;;7376983;19;20137;-60
2023/08/14 04:55:15;;;;;;;14.52;12.52;;;13.70;99.90;;;;;;7380234;19;20102;-60
2023/08/14 04:57:42;;;;;;;16.23;14.50;;;13.70;99.90;;;;;;7369042;19;20081;-62
2023/08/14 05:00:09;;;;;;;14.85;13.20;;;13.70;99.90;;;;;;7366244;19;20035;-59
2023/08/14 05:02:36;;;;;;;15.20;13.80;;;13.80;99.90;;;;;;7367478;19;20022;-58
2023/08/14 05:05:03;;;;;;;15.77;14.23;;;13.90;99.90;;;;;;7379193;19;20014;-59
2023/08/14 05:07:32;;;;;;;15.15;13.57;;;14.00;99.90;;;;;;7376332;19;20381;-60
2023/08/14 05:10:02;;;;;;;15.13;13.52;;;14.10;99.90;;;;;;7380161;19;20420;-59
2023/08/14 05:12:28;;;;;;;14.90;13.30;;;14.20;99.90;;;;;;7377922;19;20014;-59
2023/08/14 05:14:57;;;;;;;16.63;14.88;;;14.30;99.90;;;;;;7379075;19;20027;-60
2023/08/14 05:17:24;;;;;;;18.33;14.88;;;14.40;99.90;;;;;;7379556;19;20429;-63
2023/08/14 05:19:50;;;;;;;15.63;14.15;;;14.50;99.90;;;;;;7378605;19;20494;-61
2023/08/14 05:22:19;;;;;;;18.35;15.18;;;14.60;99.90;;;;;;7376618;19;20021;-59
2023/08/14 05:24:46;;;;;;;15.93;14.10;;;14.80;99.90;;;;;;7376516;19;20024;-59
2023/08/14 05:27:12;;;;;;;15.65;13.80;;;14.90;99.90;;;;;;7375810;19;20018;-59
2023/08/14 05:29:39;;;;;;;16.65;13.00;;;15.20;99.90;;;;;;7375332;19;20685;-60
2023/08/14 05:32:06;;;;;;;14.45;12.05;;;15.40;99.90;;;;;;7376817;19;20326;-60
2023/08/14 05:34:35;;;;;;;13.30;11.48;;;15.70;99.90;;;;;;7375509;19;20356;-60
2023/08/14 05:37:01;;;;;;;13.35;10.57;;;15.90;99.90;;;;;;7374503;19;20106;-61
2023/08/14 05:39:28;;;;;;;12.93;9.70;;;16.20;99.90;;;;;;7379215;19;20014;-60
2023/08/14 05:41:54;;;;;;;10.85;9.75;;;16.40;99.90;;;;;;7377550;19;20060;-60
2023/08/14 05:44:20;;;;;;;13.93;9.90;;;16.60;99.90;;;;;;7376628;19;20106;-61
2023/08/14 05:46:46;;;;;;;11.45;8.85;;;16.70;99.90;;;;;;7377619;19;20403;-60
2023/08/14 05:49:13;;;;;;;12.75;9.05;;;16.70;99.90;;;;;;7375253;19;20584;-59
2023/08/14 05:51:39;;;;;;;13.40;9.32;;;16.80;99.90;;;;;;7372838;19;20014;-59
2023/08/14 05:54:05;;;;;;;12.82;9.48;;;16.80;99.90;;;;;;7377067;19;20519;-64
2023/08/14 05:56:31;;;;;;;9.38;8.40;;;16.80;99.90;;;;;;7372978;19;20052;-60
2023/08/14 05:58:58;;;;;;;11.93;9.55;;;16.80;99.90;;;;;;7380220;19;20111;-60
2023/08/14 06:01:24;;;;;;;10.30;9.30;;;16.80;99.90;;;;;;7375954;19;20014;-60
2023/08/14 06:03:50;;;;;;;11.88;8.70;;;16.80;99.90;;;;;;7377263;19;20371;-60
2023/08/14 06:06:16;;;;;;;12.60;9.88;;;16.80;99.90;;;;;;7377349;19;20029;-60
2023/08/14 06:08:43;;;;;;;12.82;9.48;;;17.00;99.90;;;;;;7375498;19;20014;-60
2023/08/14 06:11:09;;;;;;;10.88;8.95;;;17.00;99.90;;;;;;7372024;19;20022;-60
2023/08/14 06:13:35;;;;;;;11.70;8.77;;;17.20;99.90;;;;;;7376396;19;20019;-60
2023/08/14 06:16:02;;;;;;;13.13;9.55;;;17.40;99.90;;;;;;7374039;19;20026;-60
2023/08/14 06:18:32;;;;;;;10.65;9.40;;;17.40;99.90;;;;;;7372464;19;20490;-65
2023/08/14 06:20:58;;;;;;;15.13;10.68;;;17.60;99.90;;;;;;7373544;19;20019;-60
2023/08/14 06:23:24;;;;;;;11.25;9.48;;;17.60;99.90;;;;;;7378070;19;20110;-58
2023/08/14 06:25:50;;;;;;;14.30;10.38;;;17.60;99.90;;;;;;7373809;19;20029;-60
2023/08/14 06:28:16;;;;;;;13.43;10.13;;;17.60;99.90;;;;;;7374149;19;20370;-61
2023/08/14 06:30:44;;;;;;;12.27;10.35;;;17.60;99.90;;;;;;7372138;19;20021;-61
2023/08/14 06:33:10;;;;;;;12.73;10.25;;;17.60;99.90;;;;;;7371164;19;20022;-61
2023/08/14 06:35:36;;;;;;;13.00;10.07;;;17.70;99.90;;;;;;7371888;19;20042;-60
2023/08/14 06:38:02;;;;;;;13.00;10.18;;;17.70;99.90;;;;;;7371558;19;20015;-60
2023/08/14 06:40:31;;;;;;;10.48;9.20;;;17.70;99.90;;;;;;7372479;19;20026;-64
2023/08/14 06:42:58;;;;;;;12.52;9.57;;;17.80;99.90;;;;;;7377534;19;20473;-61
2023/08/14 06:45:25;;;;;;;13.80;10.10;;;17.70;99.90;;;;;;7374658;19;20018;-61
2023/08/14 06:47:51;;;;;;;14.00;10.73;;;17.80;99.90;;;;;;7371286;19;20370;-60
2023/08/14 06:50:18;;;;;;;14.55;10.68;;;17.80;99.90;;;;;;7373072;19;20030;-62
2023/08/14 06:52:46;;;;;;;12.02;10.68;;;17.90;99.90;;;;;;7373830;19;20019;-61
2023/08/14 06:55:12;;;;;;;11.93;10.63;;;17.90;99.90;;;;;;7371716;19;20482;-61
2023/08/14 06:57:38;;;;;;;16.25;10.88;;;17.90;99.90;;;;;;7372014;19;20023;-61
2023/08/14 07:00:12;;;;;;;13.73;10.35;;;18.00;99.90;;;;;;7370735;19;20015;-61
2023/08/14 07:02:39;;;;;;;12.48;9.70;;;18.00;99.90;;;;;;7371124;19;20052;-60
2023/08/14 07:05:06;;;;;;;13.85;10.10;;;18.10;99.90;;;;;;7372831;19;20025;-61
2023/08/14 07:07:32;;;;;;;12.85;10.18;;;18.10;99.90;;;;;;7373111;19;20033;-61
2023/08/14 07:09:58;;;;;;;16.25;10.38;;;18.20;99.90;;;;;;7376306;19;20018;-60
2023/08/14 07:12:24;;;;;;;14.60;9.93;;;18.30;99.90;;;;;;7373941;19;20018;-61
2023/08/14 07:14:50;;;;;;;13.05;9.68;;;18.40;99.90;;;;;;7370536;19;20039;-60
2023/08/14 07:17:17;;;;;;;12.32;11.05;;;18.40;99.90;;;;;;7373918;19;20494;-60
2023/08/14 07:19:43;;;;;;;13.07;10.77;;;18.60;99.90;;;;;;7375167;19;20010;-60
2023/08/14 07:22:09;;;;;;;14.50;11.20;;;18.60;99.90;;;;;;7370688;19;20376;-61
2023/08/14 07:24:36;;;;;;;16.77;9.55;;;18.80;99.90;;;;;;7371372;19;20026;-60
2023/08/14 07:27:02;;;;;;;12.52;9.73;;;19.00;99.90;;;;;;7371645;19;20482;-60
2023/08/14 07:29:28;;;;;;;12.63;9.43;;;19.40;99.90;;;;;;7373300;19;20025;-60
2023/08/14 07:31:57;;;;;;;11.70;8.65;;;19.90;99.90;;;;;;7370642;19;20015;-60
2023/08/14 07:34:23;;;;;;;13.60;8.23;;;20.40;99.90;;;;;;7372994;19;20141;-60
2023/08/14 07:36:49;;;;;;;10.68;8.00;;;20.90;99.90;;;;;;7366733;19;20014;-60
2023/08/14 07:39:15;;;;;;;9.23;7.88;;;21.10;99.90;;;;;;7373434;19;20018;-61
2023/08/14 07:41:41;;;;;;;12.02;7.60;;;21.50;99.90;;;;;;7367984;19;20088;-60
2023/08/14 07:44:08;;;;;;;9.13;7.22;;;21.80;99.90;;;;;;7369161;19;20457;-60
2023/08/14 07:46:34;;;;;;;10.10;5.75;;;22.30;99.90;;;;;;7373307;19;20025;-61
2023/08/14 07:49:00;;;;;;;8.82;5.97;;;22.70;99.90;;;;;;7375897;19;20018;-62
2023/08/14 07:51:26;;;;;;;8.00;5.88;;;23.00;99.90;;;;;;7372860;19;20404;-60
2023/08/14 07:53:53;;;;;;;7.05;5.03;;;23.40;99.90;;;;;;7372581;19;20524;-60
2023/08/14 07:56:19;;;;;;;9.73;5.90;;;23.40;99.90;;;;;;7368868;19;20533;-60
2023/08/14 07:58:45;;;;;;;8.30;5.18;;;23.10;99.90;;;;;;7370117;19;20025;-60
2023/08/14 08:01:11;;;;;;;9.50;5.32;;;23.10;99.90;;;;;;7370418;19;20082;-62
2023/08/14 08:03:37;;;;;;;8.38;4.40;;;23.40;99.90;;;;;;7374376;19;20014;-61
2023/08/14 08:06:04;;;;;;;5.47;3.80;;;23.60;99.90;;;;;;7373988;19;20386;-61
2023/08/14 08:08:31;;;;;;;7.47;2.50;;;23.80;99.90;;;;;;7375227;19;20018;-61
2023/08/14 08:10:57;;;;;;;4.80;2.53;;;24.20;99.90;;;;;;7376425;19;20044;-61
2023/08/14 08:13:23;;;;;;;4.80;2.97;;;24.20;99.90;;;;;;7373459;19;20627;-61
2023/08/14 08:15:50;;;;;;;6.05;2.60;;;24.20;99.90;;;;;;7370854;19;20050;-64
2023/08/14 08:18:16;;;;;;;5.38;3.20;;;24.40;99.90;;;;;;7370409;19;20640;-61
2023/08/14 08:20:43;;;;;;;7.10;3.20;;;24.50;99.90;;;;;;7369825;19;20493;-61
2023/08/14 08:23:10;;;;;;;4.60;2.60;;;24.90;99.90;;;;;;7370588;19;20074;-60
2023/08/14 08:25:36;;;;;;;4.88;2.17;;;25.20;99.90;;;;;;7369077;19;20014;-61
2023/08/14 08:28:03;;;;;;;5.43;2.50;;;25.40;99.90;;;;;;7371301;19;20018;-61
2023/08/14 08:30:29;;;;;;;5.97;2.50;;;25.50;99.90;;;;;;7369589;19;20018;-61
2023/08/14 08:32:56;;;;;;;5.55;2.15;;;25.70;99.90;;;;;;7368335;19;20044;-59
2023/08/14 08:35:23;;;;;;;6.18;2.35;;;26.00;99.90;;;;;;7375446;19;20014;-59
2023/08/14 08:37:49;;;;;;;6.15;2.28;;;26.00;99.90;;;;;;7380073;19;20021;-59
2023/08/14 08:40:15;;;;;;;5.25;1.90;;;26.30;99.90;;;;;;7377390;19;20092;-58
2023/08/14 08:42:41;;;;;;;8.27;2.53;;;26.60;99.90;;;;;;7378717;19;20662;-59
2023/08/14 08:45:09;;;;;;;6.78;2.40;;;27.00;99.90;;;;;;7377323;19;20026;-59
2023/08/14 08:47:39;;;;;;;6.32;2.30;;;27.40;99.90;;;;;;7381230;19;20899;-58
2023/08/14 08:50:06;;;;;;;5.85;2.15;;;27.10;99.90;;;;;;7379822;19;20502;-59
2023/08/14 08:52:34;;;;;;;9.20;2.58;;;26.60;99.90;;;;;;7378191;19;20025;-58
2023/08/14 08:55:02;;;;;;;7.00;2.88;;;26.30;99.90;;;;;;7379143;19;20480;-58
2023/08/14 08:57:29;;;;;;;6.53;2.88;;;26.00;99.90;;;;;;7378907;19;20874;-59
2023/08/14 08:59:59;;;;;;;6.53;2.75;;;26.20;99.90;;;;;;7374259;19;20078;-59
2023/08/14 09:02:26;;;;;;;8.48;2.22;;;26.70;99.90;;;;;;7373482;19;20027;-59
2023/08/14 09:04:53;;;;;;;13.60;3.53;;;27.30;99.90;;;;;;7374702;19;20053;-60
2023/08/14 09:07:19;;;;;;;8.80;3.65;;;27.80;99.90;;;;;;7377617;19;20022;-60
2023/08/14 09:09:46;;;;;;;9.07;3.42;;;27.60;99.90;;;;;;7374074;19;20033;-59
2023/08/14 09:12:12;;;;;;;8.70;3.40;;;28.00;99.90;;;;;;7377622;19;20019;-60
2023/08/14 09:14:44;;;;;;;8.23;3.47;;;28.10;99.90;;;;;;7373961;19;20485;-60
2023/08/14 09:17:11;;;;;;;6.13;3.08;;;28.40;99.90;;;;;;7373925;19;20062;-59
2023/08/14 09:19:39;;;;;;;7.50;2.92;;;28.60;99.90;;;;;;7374547;19;20414;-60
2023/08/14 09:22:06;;;;;;;9.82;2.97;;;28.30;99.90;;;;;;7377612;19;20493;-59
2023/08/14 09:24:36;;;;;;;6.00;2.25;;;27.80;99.90;;;;;;7378786;19;20015;-60
2023/08/14 09:27:02;;;;;;;6.20;2.22;;;27.50;99.90;;;;;;7375654;19;20029;-61
2023/08/14 09:29:33;;;;;;;7.90;2.35;;;27.60;99.90;;;;;;7375312;19;20090;-61
2023/08/14 09:32:03;;;;;;;5.47;2.03;;;27.00;99.90;;;;;;7372451;19;20414;-64
2023/08/14 09:34:30;;;;;;;5.47;2.25;;;27.00;99.90;;;;;;7377051;19;20415;-60
2023/08/14 09:37:19;;;;;;;6.53;2.75;;;27.20;99.90;;;;;;7371704;19;20018;-60
2023/08/14 09:39:45;;;;;;;5.65;1.85;;;27.40;99.90;;;;;;7373976;19;20085;-59
2023/08/14 09:42:32;;;;;;;6.65;2.63;;;28.00;99.90;;;;;;7375719;19;20018;-60
2023/08/14 09:44:58;;;;;;;9.30;5.07;;;28.10;99.90;;;;;;7375004;19;20014;-60
2023/08/14 09:47:25;;;;;;;5.43;2.15;;;28.20;99.90;;;;;;7378538;19;20022;-59
2023/08/14 09:49:56;;;;;;;7.05;2.22;;;28.80;99.90;;;;;;7373608;19;20045;-59
2023/08/14 09:52:23;;;;;;;;;;;28.80;98.60;;;;;;7378550;19;20022;-60
2023/08/14 09:54:50;;;;;;;7.18;1.98;;;29.00;97.40;;;;;;7376451;19;19914;-60
2023/08/14 09:57:17;;;;;;;6.45;2.05;;;29.10;97.80;;;;;;7376767;19;20446;-60
2023/08/14 09:59:44;;;;;;;4.85;1.80;;;28.80;95.50;;;;;;7375790;19;20018;-60
2023/08/14 10:02:15;;;;;;;4.97;1.50;;;28.80;94.20;;;;;;7371487;19;20041;-59
2023/08/14 10:04:43;;;;;;;;;;;28.70;91.10;;;;;;7373052;19;20026;-60
2023/08/14 10:07:09;;;;;;;6.63;1.85;;;28.30;91.80;;;;;;7375807;19;19926;-60
2023/08/14 10:09:40;;;;;;;4.75;2.00;;;28.50;92.60;;;;;;7371829;19;20019;-60
2023/08/14 10:12:12;;;;;;;4.18;1.77;;;28.80;91.30;;;;;;7372431;19;20078;-60
2023/08/14 10:14:45;;;;;;;4.50;1.33;;;29.10;90.60;;;;;;7376819;19;20025;-60
2023/08/14 10:17:19;;;;;;;2.17;1.02;;;28.80;86.60;;;;;;7372939;19;20028;-61
2023/08/14 10:19:50;;;;;;;4.03;1.38;;;29.00;85.50;;;;;;7376506;19;20018;-61
2023/08/14 10:22:18;;;;;;;3.58;1.08;;;29.60;84.60;;;;;;7372135;19;20022;-60
2023/08/14 10:24:45;;;;;;;3.78;1.38;;;29.70;84.20;;;;;;7371114;19;20019;-60
2023/08/14 10:27:12;;;;;;;6.13;1.70;;;29.50;83.90;;;;;;7375431;19;20014;-61
2023/08/14 10:29:39;;;;;;;5.90;1.77;;;29.90;83.50;;;;;;7373684;19;20026;-60
2023/08/14 10:32:06;;;;;;;5.05;1.48;;;30.00;84.30;;;;;;7374520;19;20026;-61
2023/08/14 10:34:33;;;;;;;4.93;1.52;;;30.50;81.90;;;;;;7374165;19;20085;-61
2023/08/14 10:37:00;;;;;;;4.72;1.75;;;30.70;83.60;;;;;;7368082;19;20050;-60
2023/08/14 10:39:36;;;;;;;4.93;1.20;;;30.90;78.10;;;;;;7375815;19;20097;-59
2023/08/14 10:42:05;;;;;;;9.50;2.38;;;30.60;69.00;;;;;;7375862;19;20026;-60
2023/08/14 10:44:35;;;;;;;4.20;1.25;;;31.00;72.20;;;;;;7373073;19;20630;-61
2023/08/14 10:47:11;;;;;;;7.05;1.38;;;30.90;68.70;;;;;;7374990;19;20037;-59
2023/08/14 10:49:44;;;;;;;2.30;0.90;;;31.20;69.10;;;;;;7374130;19;20019;-60
2023/08/14 10:52:19;;;;;;;2.83;1.15;;;31.40;68.70;;;;;;7372080;19;20635;-60
2023/08/14 10:54:52;;;;;;;4.22;1.25;;;31.20;69.50;;;;;;7371414;19;20022;-60
2023/08/14 10:57:27;;;;;;;4.22;1.13;;;31.00;68.70;;;;;;7369727;19;20510;-61
2023/08/14 10:59:57;;;;;;;5.40;1.48;;;31.00;65.90;;;;;;7374137;19;20018;-60
2023/08/14 11:02:29;;;;;;;4.32;1.52;;;31.30;67.20;;;;;;7370236;19;20014;-60
2023/08/14 11:05:13;;;;;;;3.83;0.90;;;31.30;65.50;;;;;;7373447;19;20372;-60
2023/08/14 11:07:39;;;;;;;5.10;1.35;;;31.20;66.10;;;;;;7372217;19;20096;-60
2023/08/14 11:10:06;;;;;;;4.22;1.30;;;30.50;67.20;;;;;;7375914;19;20584;-64
2023/08/14 11:12:32;;;;;;;5.90;1.40;;;30.20;68.30;;;;;;7373376;19;20051;-60
2023/08/14 11:15:00;;;;;;;6.82;1.50;;;30.40;67.80;;;;;;7373400;19;20014;-60
2023/08/14 11:17:27;;;;;;;6.25;1.70;;;30.00;68.40;;;;;;7373429;19;20021;-63
2023/08/14 11:19:53;;;;;;;4.90;1.38;;;30.20;70.30;;;;;;7374997;19;20022;-60
2023/08/14 11:22:22;;;;;;;5.00;1.42;;;29.80;69.00;;;;;;7373865;19;20019;-61
2023/08/14 11:24:48;;;;;;;3.85;1.30;;;29.80;69.90;;;;;;7373998;19;20471;-60
2023/08/14 11:27:14;;;;;;;5.32;1.40;;;30.40;72.20;;;;;;7375358;19;20585;-60
2023/08/14 11:29:40;;;;;;;3.88;1.58;;;30.80;69.30;;;;;;7371257;19;20042;-60
2023/08/14 11:32:07;;;;;;;5.65;1.45;;;31.00;66.00;;;;;;7372931;19;20019;-61
2023/08/14 11:34:37;;;;;;;5.47;1.77;;;31.20;66.40;;;;;;7371649;19;20019;-61
2023/08/14 11:37:04;;;;;;;5.75;1.50;;;31.30;66.20;;;;;;7368758;19;20485;-64
2023/08/14 11:39:31;;;;;;;4.82;1.67;;;31.30;65.40;;;;;;7370429;19;20015;-61
2023/08/14 11:41:57;;;;;;;5.47;1.52;;;30.70;66.60;;;;;;7365913;19;20021;-61
2023/08/14 11:44:23;;;;;;;5.57;1.70;;;30.70;67.10;;;;;;7372359;19;20109;-60
2023/08/14 11:46:50;;;;;;;4.43;1.48;;;31.20;66.70;;;;;;7371829;19;20561;-61
2023/08/14 11:49:16;;;;;;;4.28;1.50;;;31.40;66.70;;;;;;7370586;19;20035;-61
2023/08/14 11:51:44;;;;;;;4.70;1.60;;;31.40;67.00;;;;;;7370109;19;20018;-62
2023/08/14 11:54:11;;;;;;;5.10;1.23;;;31.90;66.10;;;;;;7372803;19;20079;-61
2023/08/14 11:56:37;;;;;;;3.53;1.42;;;31.80;64.80;;;;;;7369713;19;20502;-61
2023/08/14 11:59:05;;;;;;;4.70;1.50;;;32.30;64.90;;;;;;7371319;19;20026;-65
2023/08/14 12:01:37;;;;;;;5.22;1.92;;;32.20;65.20;;;;;;7373881;19;20022;-61
2023/08/14 12:04:06;;;;;;;4.88;1.73;;;32.70;65.90;;;;;;7366598;19;20038;-61
2023/08/14 12:06:34;;;;;;;6.20;2.00;;;32.70;64.60;;;;;;7370142;19;20014;-61
2023/08/14 12:09:00;;;;;;;7.22;1.80;;;32.80;62.80;;;;;;7363577;19;20038;-60
2023/08/14 12:11:28;;;;;;;4.95;1.65;;;33.20;64.00;;;;;;7370345;19;20021;-61
2023/08/14 12:13:54;;;;;;;5.63;1.67;;;33.30;61.80;;;;;;7364870;19;20039;-61
2023/08/14 12:16:40;;;;;;;6.10;1.45;;;33.80;61.30;;;;;;7368856;19;20529;-60
2023/08/14 12:19:08;;;;;;;6.00;2.55;;;33.60;59.50;;;;;;7369960;19;20015;-58
2023/08/14 12:21:35;;;;;;;4.53;1.50;;;33.60;58.30;;;;;;7374169;19;20019;-60
2023/08/14 12:24:01;;;;;;;8.15;3.13;;;33.30;57.60;;;;;;7365153;19;20018;-59
2023/08/14 12:26:43;;;;;;;4.97;1.70;;;33.80;57.80;;;;;;7373808;19;20026;-60
2023/08/14 12:29:10;;;;;;;5.13;1.50;;;33.90;59.70;;;;;;7371942;19;20466;-60
2023/08/14 12:31:36;;;;;;;4.60;1.70;;;34.20;57.20;;;;;;7370899;19;20399;-59
2023/08/14 12:34:02;;;;;;;4.25;1.50;;;33.80;57.80;;;;;;7369142;19;20046;-60
2023/08/14 12:36:29;;;;;;;4.72;1.52;;;33.80;57.50;;;;;;7368286;19;20026;-59
2023/08/14 12:38:56;;;;;;;6.25;1.63;;;33.80;59.20;;;;;;7367274;19;20022;-60
2023/08/14 12:41:25;;;;;;;7.35;1.90;;;34.30;57.20;;;;;;7370656;19;20018;-59